Hlavní strana
METAR-TAF:

METAR-TAF

Letiště :

Mount Carmel Municipal Airport

Mount Carmel, Illinois, Spojené státy americké

zeměpisná šířka: 38-36-23N, zeměpisná délka: 087-43-36W, výška: 131 m

Aktuální stav počasí

Zpráva byla vytvořena před 18 minutami, v 23:15 UTC
Západní vítr 8 kt
Teplota 0°C
Vlhkost vzduchu 86%
Tlak 1018 hPa
Viditelnost: 16.1 km
Zataženo ve výšce 1900 ft

METAR: KAJG 152315Z AUTO 26008KT 10SM OVC019 00/M02 A3006 RMK AO2 T10011016

Čas: 17:33 (23:33 UTC)


TAF: chybějící

Stav a předpovědi počasí z více než 4 000 letišť (zprávy METAR a TAF).

Červené a žluté tečky na mapě představují dostupné meteorologické stanice.

Když kurzor umístíte na tečku, zobrazí se název stanice.

Pak kliknutím zobrazíte stav a předpověď počasí.

Chcete-li změnit mapu, kliknutím na zelené tlačítko se znaménkem +mapu přiblížíte, kliknutím na zelené tlačítko se znaménkem – mapu oddálíte a kliknutím na zelené šipky přejdete na sousední mapy.


METAR-TAF: